createdAt,value
2023-02-25T00:02:01.690Z,4.97
2023-02-25T00:04:32.013Z,5.83
2023-02-25T00:07:00.279Z,4.20
2023-02-25T00:09:29.363Z,3.63
2023-02-25T00:11:59.210Z,5.37
2023-02-25T00:14:27.382Z,4.07
2023-02-25T00:16:56.168Z,6.13
2023-02-25T00:19:25.436Z,4.67
2023-02-25T00:21:53.819Z,3.13
2023-02-25T00:24:22.098Z,4.13
2023-02-25T00:26:50.584Z,10.90
2023-02-25T00:29:20.927Z,7.40
2023-02-25T00:31:49.503Z,6.37
2023-02-25T00:34:18.397Z,4.90
2023-02-25T00:36:46.612Z,4.10
2023-02-25T00:39:16.133Z,5.97
2023-02-25T00:41:44.780Z,5.07
2023-02-25T00:44:13.244Z,5.00
2023-02-25T00:46:43.541Z,7.57
2023-02-25T00:49:16.710Z,4.23
2023-02-25T00:51:53.140Z,4.37
2023-02-25T00:54:21.554Z,4.03
2023-02-25T00:56:49.786Z,7.80
2023-02-25T00:59:18.152Z,6.77
2023-02-25T01:01:49.031Z,4.77
2023-02-25T01:04:17.238Z,4.50
2023-02-25T01:06:46.400Z,5.80
2023-02-25T01:09:15.578Z,3.53
2023-02-25T01:11:46.407Z,4.53
2023-02-25T01:14:17.730Z,4.17
2023-02-25T01:16:48.044Z,3.90
2023-02-25T01:19:18.465Z,7.60
2023-02-25T01:21:49.207Z,3.73
2023-02-25T01:24:20.887Z,7.17
2023-02-25T01:26:51.239Z,4.17
2023-02-25T01:29:21.909Z,5.50
2023-02-25T01:31:53.612Z,6.50
2023-02-25T01:34:29.034Z,5.50
2023-02-25T01:36:57.628Z,6.87
2023-02-25T01:39:27.604Z,5.13
2023-02-25T01:41:57.177Z,7.70
2023-02-25T01:44:29.967Z,4.33
2023-02-25T01:47:01.557Z,8.20
2023-02-25T01:49:34.285Z,3.90
2023-02-25T01:52:07.682Z,5.47
2023-02-25T01:54:37.301Z,6.67
2023-02-25T01:57:09.591Z,6.20
2023-02-25T01:59:41.787Z,6.43
2023-02-25T02:02:14.271Z,5.13
2023-02-25T02:04:46.964Z,5.10
2023-02-25T02:07:15.319Z,7.47
2023-02-25T02:09:56.776Z,6.53
2023-02-25T02:12:27.000Z,7.77
2023-02-25T02:14:57.191Z,4.83
2023-02-25T02:17:31.947Z,7.27
2023-02-25T02:20:15.009Z,4.77
2023-02-25T02:22:58.125Z,3.97
2023-02-25T02:26:05.708Z,3.63
2023-02-25T02:29:08.781Z,4.20
2023-02-25T02:31:57.724Z,2.23
2023-02-25T02:34:37.440Z,4.63
2023-02-25T02:37:15.270Z,6.07
2023-02-25T02:39:52.872Z,6.03
2023-02-25T02:42:32.933Z,5.83
2023-02-25T02:45:09.505Z,6.50
2023-02-25T02:47:42.023Z,7.27
2023-02-25T02:50:13.409Z,2.17
2023-02-25T02:52:45.698Z,3.53
2023-02-25T02:55:22.443Z,9.03
2023-02-25T02:57:58.159Z,5.37
2023-02-25T03:00:30.527Z,3.10
2023-02-25T03:03:05.434Z,5.57
2023-02-25T03:05:36.807Z,3.57
2023-02-25T03:08:10.872Z,4.50
2023-02-25T03:10:38.874Z,6.07
2023-02-25T03:13:07.082Z,4.63
2023-02-25T03:15:36.136Z,3.57
2023-02-25T03:18:11.357Z,4.27
2023-02-25T03:20:43.392Z,3.43
2023-02-25T03:23:16.566Z,7.63
2023-02-25T03:25:48.522Z,2.27
2023-02-25T03:28:24.890Z,8.40
2023-02-25T03:30:59.626Z,2.13
2023-02-25T03:33:34.574Z,3.93
2023-02-25T03:36:07.321Z,4.93
2023-02-25T03:38:38.806Z,3.90
2023-02-25T03:41:08.424Z,4.17
2023-02-25T03:43:43.419Z,5.67
2023-02-25T03:46:12.399Z,4.60
2023-02-25T03:48:42.932Z,4.43
2023-02-25T03:51:14.780Z,1.83
2023-02-25T03:53:42.785Z,2.47
2023-02-25T03:56:13.020Z,5.40
2023-02-25T03:58:44.875Z,2.60
2023-02-25T04:01:17.305Z,4.10
2023-02-25T04:03:47.198Z,2.80
2023-02-25T04:06:15.751Z,3.37
2023-02-25T04:08:44.104Z,2.97
2023-02-25T04:11:12.272Z,2.57
2023-02-25T04:13:40.316Z,4.40
2023-02-25T04:16:09.534Z,3.97
2023-02-25T04:18:38.206Z,4.13
2023-02-25T04:21:08.367Z,4.73
2023-02-25T04:23:37.480Z,5.77
2023-02-25T04:26:06.415Z,4.70
2023-02-25T04:28:34.427Z,3.33
2023-02-25T04:31:02.524Z,4.37
2023-02-25T04:33:31.106Z,2.63
2023-02-25T04:35:59.108Z,3.00
2023-02-25T04:38:28.667Z,3.93
2023-02-25T04:40:57.122Z,3.40
2023-02-25T04:43:25.455Z,5.37
2023-02-25T04:45:56.016Z,4.23
2023-02-25T04:48:24.531Z,3.30
2023-02-25T04:50:52.675Z,5.33
2023-02-25T04:53:20.802Z,7.23
2023-02-25T04:55:50.392Z,4.00
2023-02-25T04:58:18.354Z,4.70
2023-02-25T05:00:49.478Z,2.63
2023-02-25T05:03:17.476Z,4.30
2023-02-25T05:05:45.590Z,5.50
2023-02-25T05:08:13.716Z,4.27
2023-02-25T05:10:42.709Z,3.93
2023-02-25T05:13:12.605Z,4.43
2023-02-25T05:15:40.802Z,2.83
2023-02-25T05:18:09.373Z,4.00
2023-02-25T05:20:41.813Z,1.93
2023-02-25T05:23:10.627Z,3.60
2023-02-25T05:25:41.481Z,1.37
2023-02-25T05:28:12.124Z,4.83
2023-02-25T05:30:40.840Z,5.40
2023-02-25T05:33:09.300Z,5.57
2023-02-25T05:35:40.891Z,1.43
2023-02-25T05:38:09.216Z,1.97
2023-02-25T05:40:37.425Z,3.30
2023-02-25T05:43:05.998Z,6.77
2023-02-25T05:45:36.523Z,3.90
2023-02-25T05:48:04.714Z,3.10
2023-02-25T05:50:34.784Z,3.40
2023-02-25T05:53:02.996Z,3.33
2023-02-25T05:55:30.933Z,3.03
2023-02-25T05:57:59.276Z,2.40
2023-02-25T06:00:27.417Z,2.60
2023-02-25T06:02:56.952Z,2.53
2023-02-25T06:05:25.011Z,4.10
2023-02-25T06:07:53.180Z,3.20
2023-02-25T06:10:22.407Z,5.53
2023-02-25T06:12:50.425Z,6.43
2023-02-25T06:15:18.588Z,6.90
2023-02-25T06:17:46.694Z,3.30
2023-02-25T06:20:16.729Z,2.83
2023-02-25T06:22:47.714Z,3.30
2023-02-25T06:25:15.758Z,1.70
2023-02-25T06:27:43.794Z,3.33
2023-02-25T06:30:12.801Z,8.47
2023-02-25T06:32:40.833Z,1.77
2023-02-25T06:35:10.007Z,5.37
2023-02-25T06:37:39.586Z,4.00
2023-02-25T06:40:08.971Z,1.53
2023-02-25T06:42:37.008Z,4.30
2023-02-25T06:45:05.579Z,8.07
2023-02-25T06:47:34.065Z,2.83
2023-02-25T06:50:02.694Z,3.93
2023-02-25T06:52:30.960Z,6.20
2023-02-25T06:55:00.520Z,3.77
2023-02-25T06:57:28.520Z,7.77
2023-02-25T06:59:56.677Z,5.30
2023-02-25T07:02:24.889Z,3.90
2023-02-25T07:04:54.589Z,5.77
2023-02-25T07:07:23.225Z,3.40
2023-02-25T07:09:51.524Z,5.03
2023-02-25T07:12:21.125Z,5.50
2023-02-25T07:14:49.198Z,5.73
2023-02-25T07:17:18.488Z,9.57
2023-02-25T07:19:46.564Z,13.80
2023-02-25T07:22:16.949Z,11.27
2023-02-25T07:24:45.958Z,10.00
2023-02-25T07:27:14.957Z,5.87
2023-02-25T07:29:44.603Z,8.63
2023-02-25T07:32:12.760Z,5.70
2023-02-25T07:34:40.852Z,5.10
2023-02-25T07:37:08.869Z,10.87
2023-02-25T07:39:37.032Z,10.20
2023-02-25T07:42:05.424Z,6.03
2023-02-25T07:44:34.182Z,5.47
2023-02-25T07:47:04.617Z,6.43
2023-02-25T07:49:32.737Z,5.00
2023-02-25T07:52:01.387Z,5.77
2023-02-25T07:54:29.581Z,2.73
2023-02-25T07:56:57.739Z,6.20
2023-02-25T07:59:25.965Z,3.93
2023-02-25T08:01:54.091Z,4.63
2023-02-25T08:04:24.828Z,4.37
2023-02-25T08:06:53.188Z,4.50
2023-02-25T08:09:21.254Z,4.00
2023-02-25T08:11:49.353Z,6.27
2023-02-25T08:14:17.803Z,5.57
2023-02-25T08:16:46.110Z,3.97
2023-02-25T08:19:14.260Z,4.40
2023-02-25T08:21:43.756Z,8.00
2023-02-25T08:24:11.828Z,6.63
2023-02-25T08:26:41.229Z,6.80
2023-02-25T08:29:09.573Z,4.00
2023-02-25T08:31:37.840Z,3.83
2023-02-25T08:34:06.276Z,6.77
2023-02-25T08:36:37.527Z,3.43
2023-02-25T08:39:12.463Z,11.70
2023-02-25T08:41:42.150Z,6.27
2023-02-25T08:44:11.453Z,5.50
2023-02-25T08:46:41.032Z,6.90
2023-02-25T08:49:09.648Z,3.27
2023-02-25T08:51:41.150Z,12.60
2023-02-25T08:54:15.625Z,4.43
2023-02-25T08:56:45.130Z,5.00
2023-02-25T08:59:16.184Z,5.33
2023-02-25T09:01:49.143Z,5.33
2023-02-25T09:04:19.339Z,6.67
2023-02-25T09:06:48.777Z,4.13
2023-02-25T09:09:20.610Z,7.57
2023-02-25T09:11:50.330Z,8.57
2023-02-25T09:14:34.998Z,8.00
2023-02-25T09:17:05.141Z,4.90
2023-02-25T09:19:38.831Z,6.40
2023-02-25T09:22:07.803Z,5.67
2023-02-25T09:24:37.988Z,4.47
2023-02-25T09:27:08.276Z,5.90
2023-02-25T09:29:40.331Z,5.57
2023-02-25T09:32:17.925Z,8.20
2023-02-25T09:34:46.754Z,3.30
2023-02-25T09:37:15.191Z,6.60
2023-02-25T09:39:44.787Z,10.90
2023-02-25T09:42:18.000Z,7.47
2023-02-25T09:44:48.809Z,8.40
2023-02-25T09:47:22.744Z,4.50
2023-02-25T09:49:55.305Z,6.73
2023-02-25T09:52:28.988Z,5.70
2023-02-25T09:55:05.097Z,6.60
2023-02-25T09:57:41.529Z,4.00
2023-02-25T10:00:21.519Z,6.53
2023-02-25T10:02:55.564Z,10.70
2023-02-25T10:08:35.067Z,7.47
2023-02-25T10:11:10.192Z,5.27
2023-02-25T10:13:48.117Z,10.70
2023-02-25T10:16:38.474Z,5.43
2023-02-25T10:19:18.190Z,7.33
2023-02-25T10:22:01.026Z,7.67
2023-02-25T10:24:35.100Z,7.67
2023-02-25T10:27:17.001Z,7.87
2023-02-25T10:29:49.735Z,9.43
2023-02-25T10:32:23.362Z,7.80
2023-02-25T10:34:53.263Z,8.43
2023-02-25T10:37:27.475Z,6.23
2023-02-25T10:39:58.164Z,4.87
2023-02-25T10:42:27.980Z,3.70
2023-02-25T10:45:01.187Z,7.73
2023-02-25T10:47:35.697Z,6.33
2023-02-25T10:50:16.672Z,5.20
2023-02-25T10:52:59.467Z,6.17
2023-02-25T10:55:33.224Z,8.77
2023-02-25T10:58:05.127Z,13.23
2023-02-25T11:00:36.533Z,4.13
2023-02-25T11:03:05.954Z,10.13
2023-02-25T11:05:41.975Z,9.57
2023-02-25T11:08:28.098Z,8.73
2023-02-25T11:11:04.023Z,10.97
2023-02-25T11:13:38.848Z,9.00
2023-02-25T11:16:09.936Z,5.10
2023-02-25T11:18:39.440Z,8.13
2023-02-25T11:21:10.188Z,7.33
2023-02-25T11:23:45.439Z,8.97
2023-02-25T11:26:18.331Z,9.63
2023-02-25T11:28:51.854Z,11.57
2023-02-25T11:31:22.065Z,9.03
2023-02-25T11:33:57.401Z,7.03
2023-02-25T11:36:31.073Z,8.70
2023-02-25T11:39:08.941Z,5.70
2023-02-25T11:41:37.225Z,7.07
2023-02-25T11:44:28.952Z,7.60
2023-02-25T11:47:04.382Z,8.03
2023-02-25T11:49:52.357Z,6.57
2023-02-25T11:52:27.754Z,6.47
2023-02-25T11:55:12.820Z,7.83
2023-02-25T11:57:52.307Z,12.13
2023-02-25T12:00:27.921Z,5.07
2023-02-25T12:03:11.975Z,8.93
2023-02-25T12:05:59.834Z,10.07
2023-02-25T12:08:40.962Z,7.57
2023-02-25T12:11:45.513Z,8.33
2023-02-25T12:14:51.398Z,6.13
2023-02-25T12:17:42.413Z,8.17
2023-02-25T12:20:52.184Z,9.43
2023-02-25T12:23:54.041Z,6.13
2023-02-25T12:26:36.304Z,10.40
2023-02-25T12:29:38.591Z,8.17
2023-02-25T12:32:46.700Z,6.70
2023-02-25T12:35:39.757Z,11.07
2023-02-25T12:38:40.785Z,7.23
2023-02-25T12:41:27.090Z,9.93
2023-02-25T12:44:01.921Z,20.40
2023-02-25T12:46:49.238Z,8.87
2023-02-25T12:49:49.073Z,9.47
2023-02-25T12:52:41.180Z,7.97
2023-02-25T12:55:38.456Z,10.27
2023-02-25T12:58:24.756Z,7.30
2023-02-25T13:01:14.617Z,7.90
2023-02-25T13:04:13.603Z,7.80
2023-02-25T13:07:08.534Z,9.43
2023-02-25T13:09:47.336Z,4.83
2023-02-25T13:12:32.409Z,6.57
2023-02-25T13:15:11.472Z,6.30
2023-02-25T13:17:59.435Z,6.67
2023-02-25T13:21:12.271Z,9.43
2023-02-25T13:24:01.341Z,5.17
2023-02-25T13:26:46.435Z,7.40
2023-02-25T13:29:29.428Z,6.07
2023-02-25T13:32:19.947Z,6.37
2023-02-25T13:34:59.397Z,9.30
2023-02-25T13:37:42.972Z,9.97
2023-02-25T13:40:33.797Z,8.40
2023-02-25T13:43:35.418Z,5.20
2023-02-25T13:46:37.420Z,6.03
2023-02-25T13:49:32.561Z,7.50
2023-02-25T13:52:26.226Z,8.00
2023-02-25T13:55:25.164Z,5.03
2023-02-25T13:58:10.349Z,3.13
2023-02-25T14:01:09.199Z,3.50
2023-02-25T14:04:03.978Z,3.47
2023-02-25T14:06:48.652Z,3.13
2023-02-25T14:09:32.364Z,6.37
2023-02-25T14:12:13.328Z,6.10
2023-02-25T14:15:17.251Z,7.87
2023-02-25T14:17:59.075Z,5.20
2023-02-25T14:20:41.781Z,7.97
2023-02-25T14:23:17.674Z,7.57
2023-02-25T14:26:13.768Z,4.67
2023-02-25T14:28:55.025Z,6.70
2023-02-25T14:31:29.208Z,6.17
2023-02-25T14:34:20.033Z,5.97
2023-02-25T14:37:01.418Z,6.00
2023-02-25T14:39:45.185Z,8.63
2023-02-25T14:48:47.202Z,15.57
2023-02-25T14:52:03.083Z,15.50
2023-02-25T14:55:10.742Z,7.30
2023-02-25T14:58:38.312Z,10.80
2023-02-25T15:01:55.364Z,4.90
2023-02-25T15:19:07.342Z,8.97
2023-02-25T15:28:48.810Z,12.77
2023-02-25T15:34:23.153Z,9.40
2023-02-25T15:37:13.680Z,11.00
2023-02-25T15:39:55.391Z,8.87
2023-02-25T15:43:06.136Z,13.07
2023-02-25T15:49:45.024Z,13.93
2023-02-25T15:53:13.749Z,8.67
2023-02-25T15:59:20.916Z,9.67
2023-02-25T16:04:51.189Z,6.70
2023-02-25T16:07:29.267Z,10.17
2023-02-25T16:10:08.473Z,11.17
2023-02-25T16:12:39.891Z,10.07
2023-02-25T16:15:14.462Z,9.10
2023-02-25T16:17:59.585Z,11.40
2023-02-25T16:20:35.062Z,10.47
2023-02-25T16:23:06.036Z,11.07
2023-02-25T16:25:45.043Z,9.70
2023-02-25T16:28:26.896Z,11.67
2023-02-25T16:31:03.485Z,13.47
2023-02-25T16:33:43.053Z,14.47
2023-02-25T16:36:20.355Z,10.40
2023-02-25T16:38:58.417Z,4.93
2023-02-25T16:41:36.327Z,5.13
2023-02-25T16:44:06.985Z,5.93
2023-02-25T16:46:38.268Z,6.13
2023-02-25T16:49:10.355Z,4.97
2023-02-25T16:51:40.482Z,9.47
2023-02-25T16:54:14.797Z,9.83
2023-02-25T16:56:46.780Z,9.47
2023-02-25T16:59:22.969Z,13.13
2023-02-25T17:02:00.316Z,15.23
2023-02-25T17:04:38.013Z,14.73
2023-02-25T17:07:15.389Z,11.43
2023-02-25T17:09:54.328Z,14.07
2023-02-25T17:12:34.070Z,15.53
2023-02-25T17:15:06.539Z,9.93
2023-02-25T17:17:39.694Z,8.77
2023-02-25T17:20:17.948Z,10.53
2023-02-25T17:22:47.325Z,10.10
2023-02-25T17:25:19.410Z,6.57
2023-02-25T17:28:04.584Z,6.30
2023-02-25T17:30:43.673Z,10.33
2023-02-25T17:33:30.193Z,9.70
2023-02-25T17:36:16.344Z,11.13
2023-02-25T17:38:57.018Z,9.73
2023-02-25T17:41:27.511Z,8.63
2023-02-25T17:43:55.976Z,5.83
2023-02-25T17:46:36.434Z,7.10
2023-02-25T17:49:07.626Z,4.93
2023-02-25T17:51:39.348Z,10.80
2023-02-25T17:54:17.416Z,6.57
2023-02-25T17:56:56.383Z,8.67
2023-02-25T17:59:38.662Z,4.57
2023-02-25T18:02:32.797Z,6.97
2023-02-25T18:05:26.156Z,7.10
2023-02-25T18:08:05.639Z,8.67
2023-02-25T18:10:48.485Z,10.13
2023-02-25T18:13:34.392Z,14.70
2023-02-25T18:16:39.699Z,10.27
2023-02-25T18:19:45.848Z,11.57
2023-02-25T18:22:32.066Z,7.07
2023-02-25T18:27:44.655Z,10.40
2023-02-25T18:30:20.758Z,9.57
2023-02-25T18:32:49.435Z,8.87
2023-02-25T18:35:20.225Z,8.37
2023-02-25T18:37:52.239Z,10.43
2023-02-25T18:40:26.356Z,9.67
2023-02-25T18:42:55.023Z,10.40
2023-02-25T18:45:27.552Z,6.97
2023-02-25T18:47:57.424Z,8.37
2023-02-25T18:50:26.050Z,14.27
2023-02-25T18:52:55.409Z,8.80
2023-02-25T18:55:26.444Z,11.37
2023-02-25T18:57:55.420Z,6.87
2023-02-25T19:00:27.812Z,7.47
2023-02-25T19:03:00.165Z,10.97
2023-02-25T19:05:29.845Z,13.13
2023-02-25T19:07:58.917Z,9.60
2023-02-25T19:10:30.971Z,11.57
2023-02-25T19:13:03.635Z,11.33
2023-02-25T19:15:39.443Z,8.80
2023-02-25T19:18:07.760Z,9.30
2023-02-25T19:24:17.951Z,8.50
2023-02-25T19:26:52.572Z,7.27
2023-02-25T19:29:21.391Z,8.03
2023-02-25T19:31:52.166Z,8.37
2023-02-25T19:34:20.927Z,9.13
2023-02-25T19:36:52.157Z,10.80
2023-02-25T19:39:20.608Z,10.63
2023-02-25T19:41:49.058Z,5.03
2023-02-25T19:44:17.424Z,13.47
2023-02-25T19:46:46.078Z,5.40
2023-02-25T19:49:15.924Z,7.10
2023-02-25T19:51:44.064Z,7.67
2023-02-25T19:54:12.181Z,8.13
2023-02-25T19:56:40.700Z,9.53
2023-02-25T19:59:12.278Z,7.10
2023-02-25T20:01:41.418Z,12.40
2023-02-25T20:04:10.877Z,13.60
2023-02-25T20:06:40.690Z,7.87
2023-02-25T20:09:10.765Z,7.60
2023-02-25T20:11:39.514Z,8.70
2023-02-25T20:14:08.289Z,8.83
2023-02-25T20:16:36.911Z,11.40
2023-02-25T20:19:05.335Z,11.53
2023-02-25T20:21:33.769Z,9.77
2023-02-25T20:24:04.973Z,7.57
2023-02-25T20:26:33.469Z,11.43
2023-02-25T20:29:03.163Z,13.13
2023-02-25T20:31:32.744Z,16.37
2023-02-25T20:34:05.350Z,9.70
2023-02-25T20:36:39.966Z,9.20
2023-02-25T20:39:29.952Z,8.87
2023-02-25T20:41:59.241Z,11.07
2023-02-25T20:44:28.277Z,10.90
2023-02-25T20:46:58.069Z,10.53
2023-02-25T20:49:26.859Z,13.53
2023-02-25T20:51:56.701Z,10.57
2023-02-25T20:54:26.577Z,11.50
2023-02-25T20:56:54.650Z,10.90
2023-02-25T20:59:23.424Z,6.70
2023-02-25T21:01:52.023Z,7.57
2023-02-25T21:04:20.205Z,13.90
2023-02-25T21:06:48.670Z,15.67
2023-02-25T21:09:17.164Z,19.33
2023-02-25T21:11:48.104Z,15.37
2023-02-25T21:14:16.253Z,14.63
2023-02-25T21:16:44.912Z,10.03
2023-02-25T21:19:13.408Z,10.93
2023-02-25T21:21:41.567Z,11.90
2023-02-25T21:24:12.677Z,11.60
2023-02-25T21:26:40.844Z,10.93
2023-02-25T21:29:11.335Z,12.87
2023-02-25T21:31:39.840Z,10.03
2023-02-25T21:34:13.079Z,12.13
2023-02-25T21:36:42.074Z,12.37
2023-02-25T21:39:12.554Z,7.47
2023-02-25T21:41:44.429Z,9.97
2023-02-25T21:44:14.860Z,16.23
2023-02-25T21:46:42.900Z,16.03
2023-02-25T21:49:11.773Z,17.27
2023-02-25T21:51:40.369Z,22.90
2023-02-25T21:54:08.957Z,13.93
2023-02-25T21:56:36.943Z,12.40
2023-02-25T21:59:06.732Z,14.47
2023-02-25T22:01:38.890Z,9.00
2023-02-25T22:04:09.866Z,8.30
2023-02-25T22:06:38.288Z,8.00
2023-02-25T22:09:07.305Z,12.93
2023-02-25T22:11:37.580Z,8.90
2023-02-25T22:14:07.581Z,10.23
2023-02-25T22:16:40.281Z,6.77
2023-02-25T22:19:08.704Z,10.10
2023-02-25T22:21:37.817Z,11.73
2023-02-25T22:24:06.810Z,13.10
2023-02-25T22:26:36.435Z,13.33
2023-02-25T22:29:06.918Z,9.10
2023-02-25T22:31:36.692Z,9.40
2023-02-25T22:34:05.433Z,12.40
2023-02-25T22:36:33.946Z,8.00
2023-02-25T22:39:05.827Z,9.90
2023-02-25T22:41:33.980Z,10.40
2023-02-25T22:44:03.401Z,10.50
2023-02-25T22:46:33.843Z,6.33
2023-02-25T22:49:04.847Z,10.03
2023-02-25T22:51:35.194Z,7.83
2023-02-25T22:54:05.013Z,11.60
2023-02-25T22:56:33.408Z,4.97
2023-02-25T22:59:02.175Z,8.30
2023-02-25T23:01:30.195Z,12.80
2023-02-25T23:04:02.039Z,8.60
2023-02-25T23:06:48.616Z,8.10
2023-02-25T23:09:18.127Z,5.73
2023-02-25T23:11:46.296Z,7.20
2023-02-25T23:14:15.468Z,8.30
2023-02-25T23:16:46.525Z,6.53
2023-02-25T23:19:17.249Z,9.03
2023-02-25T23:21:47.279Z,9.27
2023-02-25T23:24:18.721Z,8.33
2023-02-25T23:26:50.321Z,7.00
2023-02-25T23:29:18.675Z,7.67
2023-02-25T23:31:48.429Z,8.70
2023-02-25T23:34:19.906Z,13.20
2023-02-25T23:36:49.626Z,12.17
2023-02-25T23:39:18.400Z,9.40
2023-02-25T23:44:15.794Z,6.30
2023-02-25T23:46:45.206Z,8.83
2023-02-25T23:49:15.734Z,6.30
2023-02-25T23:51:45.534Z,6.27
2023-02-25T23:54:17.172Z,10.07
2023-02-25T23:56:45.200Z,5.93
2023-02-25T23:59:13.610Z,8.57
